Thatta, Pakistan
Current Conditions -  °F | °C
As of 3:55 AM on Thursday 18 Dec 2014 (Local Time) from OPKC Reporting Station
Clear Clear  
Wind Chill: 54°   Ceiling: Unl
Heat Index: 54°   Visibility: 4mi
Dew Point: 36°   Wind: 3mph
Humidity: 51%   Direction: 60°ENE
Pressure: 30.06"   Gusts: NA
Location:  24.75°N, 67.92°E
Report Text: OPKC 172255Z 06003KT 6000 NSC 12/02 Q1018 NOSIG
Loading
Personal Weather Stations






























Interactive Weather Map New forecast layout! Learn more

10-Day Weather Forecast

Advertisements
Track Severe Weather on mobile